createdAt,value
2018-10-03T03:26:24.053Z,60.03
2018-10-03T03:30:27.944Z,60.03
2018-10-03T03:34:32.779Z,59.99
2018-10-03T03:38:36.617Z,60.04
2018-10-03T03:42:40.300Z,60.06
2018-10-03T03:46:43.889Z,60.21
2018-10-03T03:50:47.517Z,60.74
2018-10-03T03:54:51.530Z,60.89
2018-10-03T03:58:55.389Z,60.93
2018-10-03T04:02:59.041Z,60.60
2018-10-03T04:07:02.588Z,60.47
2018-10-03T04:11:06.208Z,60.99
2018-10-03T04:15:10.408Z,60.98
2018-10-03T04:19:14.039Z,60.78
2018-10-03T04:23:17.652Z,60.83
2018-10-03T04:41:13.388Z,61.86
2018-10-03T04:45:16.962Z,61.88
2018-10-03T04:49:20.534Z,61.11
2018-10-03T04:53:24.225Z,61.03
2018-10-03T04:57:27.709Z,61.21
2018-10-03T05:01:31.313Z,61.74
2018-10-03T05:05:34.878Z,61.97
2018-10-03T05:09:38.428Z,61.87
2018-10-03T05:13:42.032Z,61.02
2018-10-03T05:17:45.538Z,61.13
2018-10-03T05:21:49.121Z,61.74
2018-10-03T05:25:52.668Z,61.82
2018-10-03T05:29:56.206Z,61.42
2018-10-03T05:33:59.745Z,61.70
2018-10-03T05:38:03.249Z,61.40
2018-10-03T05:42:06.872Z,61.78
2018-10-03T05:46:10.365Z,61.06
2018-10-03T05:50:13.930Z,61.48
2018-10-03T05:54:17.421Z,61.52
2018-10-03T05:58:21.195Z,61.60
2018-10-03T06:02:25.345Z,60.84
2018-10-03T06:06:30.224Z,61.34
2018-10-03T06:10:35.732Z,61.53
2018-10-03T06:14:40.002Z,61.43
2018-10-03T06:18:44.004Z,61.27
2018-10-03T06:22:47.829Z,61.20
2018-10-03T06:26:51.636Z,61.03
2018-10-03T06:30:55.296Z,60.84
2018-10-03T06:34:58.857Z,61.43
2018-10-03T06:39:02.524Z,60.85
2018-10-03T06:43:06.073Z,60.85
2018-10-03T06:47:10.404Z,60.79
2018-10-03T06:51:13.962Z,60.71
2018-10-03T06:55:17.590Z,60.60
2018-10-03T06:59:21.215Z,60.79
2018-10-03T07:03:25.038Z,61.24
2018-10-03T07:07:28.678Z,61.09
2018-10-03T07:11:32.359Z,60.67
2018-10-03T07:15:36.012Z,60.49
2018-10-03T07:19:39.654Z,60.30
2018-10-03T07:23:43.406Z,60.81
2018-10-03T07:27:46.936Z,60.32
2018-10-03T07:31:50.713Z,60.68
2018-10-03T07:35:55.588Z,60.12
2018-10-03T07:39:59.368Z,60.32
2018-10-03T07:44:03.184Z,60.18
2018-10-03T07:48:06.971Z,59.93
2018-10-03T07:52:10.661Z,60.05
2018-10-03T07:56:15.405Z,60.33
2018-10-03T08:00:25.861Z,60.31
2018-10-03T08:04:30.327Z,60.49
2018-10-03T08:08:35.031Z,60.39
2018-10-03T08:12:39.185Z,60.07
2018-10-03T08:16:42.891Z,59.80
2018-10-03T08:20:46.549Z,60.45
2018-10-03T08:24:50.296Z,60.00
2018-10-03T08:28:55.836Z,59.54
2018-10-03T08:32:59.621Z,59.47
2018-10-03T08:37:03.105Z,59.62
2018-10-03T08:41:07.236Z,59.54
2018-10-03T08:45:11.638Z,59.31
2018-10-03T08:49:15.193Z,59.14
2018-10-03T08:53:18.932Z,59.62
2018-10-03T08:57:26.156Z,59.28
2018-10-03T09:01:42.835Z,58.98
2018-10-03T09:06:05.605Z,59.35
2018-10-03T09:10:30.846Z,59.04
2018-10-03T09:14:49.132Z,59.05
2018-10-03T09:19:00.713Z,59.37
2018-10-03T09:23:09.919Z,59.45
2018-10-03T09:36:08.605Z,59.34
2018-10-03T09:40:12.451Z,59.12
2018-10-03T09:44:16.886Z,59.07
2018-10-03T09:48:22.325Z,59.47
2018-10-03T09:52:26.650Z,59.47
2018-10-03T09:56:32.652Z,59.51
2018-10-03T10:14:41.148Z,58.25
2018-10-03T11:04:53.355Z,54.74
2018-10-03T11:18:14.488Z,57.17
2018-10-03T11:22:39.708Z,57.27
2018-10-03T11:35:58.968Z,59.33
2018-10-03T17:41:12.230Z,50.44
2018-10-03T17:54:32.261Z,50.88
2018-10-03T17:58:38.208Z,50.81
2018-10-03T18:07:20.364Z,50.45
2018-10-03T18:16:01.655Z,50.28
2018-10-03T18:20:05.930Z,49.87
2018-10-03T18:28:47.116Z,49.96
2018-10-03T18:32:51.104Z,50.06
2018-10-03T18:36:56.882Z,50.20
2018-10-03T18:45:40.056Z,50.14
2018-10-03T18:49:46.563Z,49.75
2018-10-03T18:53:50.300Z,50.31
2018-10-03T18:57:53.908Z,50.37
2018-10-03T19:01:58.381Z,50.46
2018-10-03T19:10:41.388Z,50.57
2018-10-03T19:23:57.867Z,50.92
2018-10-03T19:41:54.921Z,51.62
2018-10-03T19:45:59.080Z,51.62
2018-10-03T19:50:02.721Z,51.52
2018-10-03T20:02:59.172Z,51.91
2018-10-03T20:30:15.773Z,52.29
2018-10-03T20:34:24.487Z,52.61
2018-10-03T20:38:29.911Z,52.58
2018-10-03T20:47:13.656Z,53.01
2018-10-03T20:51:18.786Z,52.99
2018-10-03T20:55:22.620Z,53.19
2018-10-03T20:59:29.192Z,53.41
2018-10-03T21:03:32.879Z,54.01
2018-10-03T21:07:40.468Z,53.69
2018-10-03T21:11:54.375Z,53.86
2018-10-03T21:16:02.225Z,54.07
2018-10-03T21:20:11.781Z,53.69
2018-10-03T21:24:21.908Z,52.82
2018-10-03T21:28:28.701Z,53.06
2018-10-03T21:32:41.665Z,53.56
2018-10-03T21:36:48.879Z,53.46
2018-10-03T21:40:58.718Z,53.46
2018-10-03T21:45:12.475Z,53.16
2018-10-03T21:49:25.449Z,53.12
2018-10-03T21:53:38.537Z,53.02
2018-10-03T22:02:06.159Z,53.05
2018-10-03T22:06:15.790Z,52.60
2018-10-03T22:15:14.773Z,52.16
2018-10-03T22:19:18.510Z,52.56
2018-10-03T22:23:22.158Z,52.57
2018-10-03T22:27:25.948Z,52.60
2018-10-03T22:40:47.504Z,54.55
2018-10-03T22:44:51.322Z,54.27
2018-10-03T22:48:56.552Z,54.26
2018-10-03T22:53:02.058Z,54.31
2018-10-03T22:57:06.317Z,54.61
2018-10-03T23:01:10.148Z,55.73
2018-10-03T23:05:14.781Z,55.21
2018-10-03T23:09:19.318Z,55.08
2018-10-03T23:13:22.980Z,55.97
2018-10-03T23:17:30.188Z,55.63
2018-10-03T23:21:38.007Z,56.47
2018-10-03T23:25:44.452Z,55.88
2018-10-03T23:29:50.237Z,56.23
2018-10-03T23:33:56.017Z,56.24
2018-10-03T23:38:04.306Z,55.95
2018-10-03T23:42:16.042Z,56.11
2018-10-03T23:46:21.694Z,56.49
2018-10-03T23:50:31.123Z,55.68
2018-10-03T23:54:35.987Z,55.25
2018-10-03T23:58:41.910Z,55.68
